sensor_id;sensor_type;location;lat;lon;timestamp;temperature;humidity
69533;DHT22;56729;52.036;5.332;2023-02-08T00:00:14;-0.50;99.90
69533;DHT22;56729;52.036;5.332;2023-02-08T00:01:18;-0.50;99.90
69533;DHT22;56729;52.036;5.332;2023-02-08T00:02:20;-0.50;99.90
69533;DHT22;56729;52.036;5.332;2023-02-08T00:03:22;-0.50;99.90
69533;DHT22;56729;52.036;5.332;2023-02-08T00:04:24;-0.50;99.90
69533;DHT22;56729;52.036;5.332;2023-02-08T00:05:26;-0.50;99.90
69533;DHT22;56729;52.036;5.332;2023-02-08T00:06:28;-0.50;99.90
69533;DHT22;56729;52.036;5.332;2023-02-08T00:07:30;-0.60;99.90
69533;DHT22;56729;52.036;5.332;2023-02-08T00:08:35;-0.50;99.90
69533;DHT22;56729;52.036;5.332;2023-02-08T00:09:38;-0.50;99.90
69533;DHT22;56729;52.036;5.332;2023-02-08T00:10:39;-0.50;99.90
69533;DHT22;56729;52.036;5.332;2023-02-08T00:11:42;-0.50;99.90
69533;DHT22;56729;52.036;5.332;2023-02-08T00:12:43;-0.50;99.90
69533;DHT22;56729;52.036;5.332;2023-02-08T00:13:45;-0.50;99.90
69533;DHT22;56729;52.036;5.332;2023-02-08T00:14:47;-0.50;99.90
69533;DHT22;56729;52.036;5.332;2023-02-08T00:15:52;-0.50;99.90
69533;DHT22;56729;52.036;5.332;2023-02-08T00:16:54;-0.50;99.90
69533;DHT22;56729;52.036;5.332;2023-02-08T00:17:56;-0.50;99.90
69533;DHT22;56729;52.036;5.332;2023-02-08T00:18:58;-0.40;99.90
69533;DHT22;56729;52.036;5.332;2023-02-08T00:19:59;-0.50;99.90
69533;DHT22;56729;52.036;5.332;2023-02-08T00:21:07;-0.40;99.90
69533;DHT22;56729;52.036;5.332;2023-02-08T00:22:09;-0.50;99.90
69533;DHT22;56729;52.036;5.332;2023-02-08T00:23:14;-0.50;99.90
69533;DHT22;56729;52.036;5.332;2023-02-08T00:24:16;-0.50;99.90
69533;DHT22;56729;52.036;5.332;2023-02-08T00:25:18;-0.40;99.90
69533;DHT22;56729;52.036;5.332;2023-02-08T00:26:20;-0.40;99.90
69533;DHT22;56729;52.036;5.332;2023-02-08T00:27:23;-0.40;99.90
69533;DHT22;56729;52.036;5.332;2023-02-08T00:28:25;-0.40;99.90
69533;DHT22;56729;52.036;5.332;2023-02-08T00:29:27;-0.40;99.90
69533;DHT22;56729;52.036;5.332;2023-02-08T00:30:31;-0.40;99.90
69533;DHT22;56729;52.036;5.332;2023-02-08T00:31:33;-0.40;99.90
69533;DHT22;56729;52.036;5.332;2023-02-08T00:32:37;-0.40;99.90
69533;DHT22;56729;52.036;5.332;2023-02-08T00:33:39;-0.40;99.90
69533;DHT22;56729;52.036;5.332;2023-02-08T00:34:41;-0.40;99.90
69533;DHT22;56729;52.036;5.332;2023-02-08T00:35:43;-0.40;99.90
69533;DHT22;56729;52.036;5.332;2023-02-08T00:36:45;-0.40;99.90
69533;DHT22;56729;52.036;5.332;2023-02-08T00:37:47;-0.40;99.90
69533;DHT22;56729;52.036;5.332;2023-02-08T00:38:51;-0.40;99.90
69533;DHT22;56729;52.036;5.332;2023-02-08T00:39:55;-0.40;99.90
69533;DHT22;56729;52.036;5.332;2023-02-08T00:40:57;-0.40;99.90
69533;DHT22;56729;52.036;5.332;2023-02-08T00:41:59;-0.40;99.90
69533;DHT22;56729;52.036;5.332;2023-02-08T00:43:01;-0.40;99.90
69533;DHT22;56729;52.036;5.332;2023-02-08T00:44:20;-0.40;99.90
69533;DHT22;56729;52.036;5.332;2023-02-08T00:45:22;-0.40;99.90
69533;DHT22;56729;52.036;5.332;2023-02-08T00:46:24;-0.50;99.90
69533;DHT22;56729;52.036;5.332;2023-02-08T00:47:26;-0.50;99.90
69533;DHT22;56729;52.036;5.332;2023-02-08T00:48:28;-0.50;99.90
69533;DHT22;56729;52.036;5.332;2023-02-08T00:49:47;-0.50;99.90
69533;DHT22;56729;52.036;5.332;2023-02-08T00:50:57;-0.50;99.90
69533;DHT22;56729;52.036;5.332;2023-02-08T00:51:59;-0.60;99.90
69533;DHT22;56729;52.036;5.332;2023-02-08T00:53:01;-0.60;99.90
69533;DHT22;56729;52.036;5.332;2023-02-08T00:54:02;-0.60;99.90
69533;DHT22;56729;52.036;5.332;2023-02-08T00:55:05;-0.70;99.90
69533;DHT22;56729;52.036;5.332;2023-02-08T00:56:08;-0.70;99.90
69533;DHT22;56729;52.036;5.332;2023-02-08T00:57:11;-0.70;99.90
69533;DHT22;56729;52.036;5.332;2023-02-08T00:58:13;-0.80;99.90
69533;DHT22;56729;52.036;5.332;2023-02-08T00:59:15;-0.80;99.90
69533;DHT22;56729;52.036;5.332;2023-02-08T01:00:18;-0.80;99.90
69533;DHT22;56729;52.036;5.332;2023-02-08T01:01:20;-0.80;99.90
69533;DHT22;56729;52.036;5.332;2023-02-08T01:02:22;-0.80;99.90
69533;DHT22;56729;52.036;5.332;2023-02-08T01:03:25;-0.80;99.90
69533;DHT22;56729;52.036;5.332;2023-02-08T01:04:27;-0.80;99.90
69533;DHT22;56729;52.036;5.332;2023-02-08T01:05:29;-0.70;99.90
69533;DHT22;56729;52.036;5.332;2023-02-08T01:06:31;-0.70;99.90
69533;DHT22;56729;52.036;5.332;2023-02-08T01:07:36;-0.70;99.90
69533;DHT22;56729;52.036;5.332;2023-02-08T01:08:38;-0.70;99.90
69533;DHT22;56729;52.036;5.332;2023-02-08T01:09:40;-0.70;99.90
69533;DHT22;56729;52.036;5.332;2023-02-08T01:10:42;-0.70;99.90
69533;DHT22;56729;52.036;5.332;2023-02-08T01:11:44;-0.70;99.90
69533;DHT22;56729;52.036;5.332;2023-02-08T01:12:46;-0.70;99.90
69533;DHT22;56729;52.036;5.332;2023-02-08T01:13:48;-0.70;99.90
69533;DHT22;56729;52.036;5.332;2023-02-08T01:14:50;-0.70;99.90
69533;DHT22;56729;52.036;5.332;2023-02-08T01:15:52;-0.60;99.90
69533;DHT22;56729;52.036;5.332;2023-02-08T01:16:54;-0.60;99.90
69533;DHT22;56729;52.036;5.332;2023-02-08T01:17:57;-0.60;99.90
69533;DHT22;56729;52.036;5.332;2023-02-08T01:19:00;-0.60;99.90
69533;DHT22;56729;52.036;5.332;2023-02-08T01:20:03;-0.60;99.90
69533;DHT22;56729;52.036;5.332;2023-02-08T01:21:06;-0.60;99.90
69533;DHT22;56729;52.036;5.332;2023-02-08T01:22:09;-0.60;99.90
69533;DHT22;56729;52.036;5.332;2023-02-08T01:23:10;-0.60;99.90
69533;DHT22;56729;52.036;5.332;2023-02-08T01:24:13;-0.60;99.90
69533;DHT22;56729;52.036;5.332;2023-02-08T01:25:32;-0.60;99.90
69533;DHT22;56729;52.036;5.332;2023-02-08T01:26:34;-0.60;99.90
69533;DHT22;56729;52.036;5.332;2023-02-08T01:27:39;-0.60;99.90
69533;DHT22;56729;52.036;5.332;2023-02-08T01:28:41;-0.60;99.90
69533;DHT22;56729;52.036;5.332;2023-02-08T01:29:46;-0.60;99.90
69533;DHT22;56729;52.036;5.332;2023-02-08T01:30:48;-0.60;99.90
69533;DHT22;56729;52.036;5.332;2023-02-08T01:31:50;-0.60;99.90
69533;DHT22;56729;52.036;5.332;2023-02-08T01:32:52;-0.60;99.90
69533;DHT22;56729;52.036;5.332;2023-02-08T01:33:55;-0.60;99.90
69533;DHT22;56729;52.036;5.332;2023-02-08T01:34:57;-0.60;99.90
69533;DHT22;56729;52.036;5.332;2023-02-08T01:35:59;-0.60;99.90
69533;DHT22;56729;52.036;5.332;2023-02-08T01:37:01;-0.60;99.90
69533;DHT22;56729;52.036;5.332;2023-02-08T01:38:03;-0.60;99.90
69533;DHT22;56729;52.036;5.332;2023-02-08T01:39:06;-0.60;99.90
69533;DHT22;56729;52.036;5.332;2023-02-08T01:40:09;-0.60;99.90
69533;DHT22;56729;52.036;5.332;2023-02-08T01:41:28;-0.60;99.90
69533;DHT22;56729;52.036;5.332;2023-02-08T01:42:30;-0.60;99.90
69533;DHT22;56729;52.036;5.332;2023-02-08T01:46:21;-0.70;99.90
69533;DHT22;56729;52.036;5.332;2023-02-08T01:47:23;-0.70;99.90
69533;DHT22;56729;52.036;5.332;2023-02-08T01:48:27;-0.70;99.90
69533;DHT22;56729;52.036;5.332;2023-02-08T01:49:33;-0.70;99.90
69533;DHT22;56729;52.036;5.332;2023-02-08T01:50:46;-0.80;99.90
69533;DHT22;56729;52.036;5.332;2023-02-08T01:52:08;-0.80;99.90
69533;DHT22;56729;52.036;5.332;2023-02-08T01:53:11;-0.80;99.90
69533;DHT22;56729;52.036;5.332;2023-02-08T01:54:15;-0.80;99.90
69533;DHT22;56729;52.036;5.332;2023-02-08T01:55:28;-0.80;99.90
69533;DHT22;56729;52.036;5.332;2023-02-08T01:56:33;-0.80;99.90
69533;DHT22;56729;52.036;5.332;2023-02-08T01:57:36;-0.80;99.90
69533;DHT22;56729;52.036;5.332;2023-02-08T01:58:45;-0.80;99.90
69533;DHT22;56729;52.036;5.332;2023-02-08T01:59:55;-0.80;99.90
69533;DHT22;56729;52.036;5.332;2023-02-08T02:01:00;-0.80;99.90
69533;DHT22;56729;52.036;5.332;2023-02-08T02:02:02;-0.80;99.90
69533;DHT22;56729;52.036;5.332;2023-02-08T02:03:06;-0.80;99.90
69533;DHT22;56729;52.036;5.332;2023-02-08T02:04:08;-0.80;99.90
69533;DHT22;56729;52.036;5.332;2023-02-08T02:05:10;-0.80;99.90
69533;DHT22;56729;52.036;5.332;2023-02-08T02:06:17;-0.80;99.90
69533;DHT22;56729;52.036;5.332;2023-02-08T02:07:20;-0.80;99.90
69533;DHT22;56729;52.036;5.332;2023-02-08T02:08:23;-0.80;99.90
69533;DHT22;56729;52.036;5.332;2023-02-08T02:10:41;-0.80;99.90
69533;DHT22;56729;52.036;5.332;2023-02-08T02:11:43;-0.80;99.90
69533;DHT22;56729;52.036;5.332;2023-02-08T02:12:45;-0.80;99.90
69533;DHT22;56729;52.036;5.332;2023-02-08T02:13:48;-0.80;99.90
69533;DHT22;56729;52.036;5.332;2023-02-08T02:14:52;-0.80;99.90
69533;DHT22;56729;52.036;5.332;2023-02-08T02:15:54;-0.80;99.90
69533;DHT22;56729;52.036;5.332;2023-02-08T02:16:59;-0.80;99.90
69533;DHT22;56729;52.036;5.332;2023-02-08T02:18:02;-0.80;99.90
69533;DHT22;56729;52.036;5.332;2023-02-08T02:19:14;-0.80;99.90
69533;DHT22;56729;52.036;5.332;2023-02-08T02:21:45;-0.80;99.90
69533;DHT22;56729;52.036;5.332;2023-02-08T02:31:46;-1.10;99.90
69533;DHT22;56729;52.036;5.332;2023-02-08T02:34:33;-1.10;99.90
69533;DHT22;56729;52.036;5.332;2023-02-08T02:35:55;-1.10;99.90
69533;DHT22;56729;52.036;5.332;2023-02-08T02:38:36;-1.10;99.90
69533;DHT22;56729;52.036;5.332;2023-02-08T02:41:18;-1.10;99.90
69533;DHT22;56729;52.036;5.332;2023-02-08T02:43:13;-1.10;99.90
69533;DHT22;56729;52.036;5.332;2023-02-08T02:45:09;-1.10;99.90
69533;DHT22;56729;52.036;5.332;2023-02-08T02:46:27;-1.10;99.90
69533;DHT22;56729;52.036;5.332;2023-02-08T02:48:01;-1.10;99.90
69533;DHT22;56729;52.036;5.332;2023-02-08T02:49:23;-1.10;99.90
69533;DHT22;56729;52.036;5.332;2023-02-08T02:50:33;-1.10;99.90
69533;DHT22;56729;52.036;5.332;2023-02-08T02:51:47;-1.20;99.90
69533;DHT22;56729;52.036;5.332;2023-02-08T02:53:05;-1.20;99.90
69533;DHT22;56729;52.036;5.332;2023-02-08T02:54:18;-1.20;99.90
69533;DHT22;56729;52.036;5.332;2023-02-08T02:55:22;-1.20;99.90
69533;DHT22;56729;52.036;5.332;2023-02-08T02:56:39;-1.10;99.90
69533;DHT22;56729;52.036;5.332;2023-02-08T02:57:44;-1.10;99.90
69533;DHT22;56729;52.036;5.332;2023-02-08T02:58:48;-1.10;99.90
69533;DHT22;56729;52.036;5.332;2023-02-08T02:59:52;-1.10;99.90
69533;DHT22;56729;52.036;5.332;2023-02-08T03:00:56;-1.20;99.90
69533;DHT22;56729;52.036;5.332;2023-02-08T03:02:00;-1.20;99.90
69533;DHT22;56729;52.036;5.332;2023-02-08T03:03:02;-1.20;99.90
69533;DHT22;56729;52.036;5.332;2023-02-08T03:04:16;-1.20;99.90
69533;DHT22;56729;52.036;5.332;2023-02-08T03:05:18;-1.20;99.90
69533;DHT22;56729;52.036;5.332;2023-02-08T03:07:57;-1.10;99.90
69533;DHT22;56729;52.036;5.332;2023-02-08T03:09:24;-1.10;99.90
69533;DHT22;56729;52.036;5.332;2023-02-08T03:10:52;-1.20;99.90
69533;DHT22;56729;52.036;5.332;2023-02-08T03:13:52;-1.10;99.90
69533;DHT22;56729;52.036;5.332;2023-02-08T03:15:02;-1.10;99.90
69533;DHT22;56729;52.036;5.332;2023-02-08T03:19:21;-1.20;99.90
69533;DHT22;56729;52.036;5.332;2023-02-08T03:22:12;-1.20;99.90
69533;DHT22;56729;52.036;5.332;2023-02-08T03:24:32;-1.30;99.90
69533;DHT22;56729;52.036;5.332;2023-02-08T03:26:04;-1.30;99.90
69533;DHT22;56729;52.036;5.332;2023-02-08T03:29:49;-1.30;99.90
69533;DHT22;56729;52.036;5.332;2023-02-08T03:31:18;-1.30;99.90
69533;DHT22;56729;52.036;5.332;2023-02-08T03:32:42;-1.20;99.90
69533;DHT22;56729;52.036;5.332;2023-02-08T03:34:07;-1.20;99.90
69533;DHT22;56729;52.036;5.332;2023-02-08T03:36:41;-1.20;99.90
69533;DHT22;56729;52.036;5.332;2023-02-08T03:37:57;-1.20;99.90
69533;DHT22;56729;52.036;5.332;2023-02-08T03:39:02;-1.20;99.90
69533;DHT22;56729;52.036;5.332;2023-02-08T03:40:50;-1.20;99.90
69533;DHT22;56729;52.036;5.332;2023-02-08T03:41:35;-1.20;99.90
69533;DHT22;56729;52.036;5.332;2023-02-08T03:42:39;-1.20;99.90
69533;DHT22;56729;52.036;5.332;2023-02-08T03:43:54;-1.20;99.90
69533;DHT22;56729;52.036;5.332;2023-02-08T03:45:00;-1.20;99.90
69533;DHT22;56729;52.036;5.332;2023-02-08T03:46:10;-1.20;99.90
69533;DHT22;56729;52.036;5.332;2023-02-08T03:47:24;-1.20;99.90
69533;DHT22;56729;52.036;5.332;2023-02-08T03:48:27;-1.20;99.90
69533;DHT22;56729;52.036;5.332;2023-02-08T03:49:33;-1.20;99.90
69533;DHT22;56729;52.036;5.332;2023-02-08T03:50:38;-1.30;99.90
69533;DHT22;56729;52.036;5.332;2023-02-08T03:51:43;-1.30;99.90
69533;DHT22;56729;52.036;5.332;2023-02-08T03:52:46;-1.30;99.90
69533;DHT22;56729;52.036;5.332;2023-02-08T03:53:49;-1.30;99.90
69533;DHT22;56729;52.036;5.332;2023-02-08T03:56:37;-1.40;99.90
69533;DHT22;56729;52.036;5.332;2023-02-08T03:58:38;-1.40;99.90
69533;DHT22;56729;52.036;5.332;2023-02-08T03:59:35;-1.40;99.90
69533;DHT22;56729;52.036;5.332;2023-02-08T04:00:41;-1.50;99.90
69533;DHT22;56729;52.036;5.332;2023-02-08T04:01:49;-1.50;99.90
69533;DHT22;56729;52.036;5.332;2023-02-08T04:03:00;-1.50;99.90
69533;DHT22;56729;52.036;5.332;2023-02-08T04:04:03;-1.40;99.90
69533;DHT22;56729;52.036;5.332;2023-02-08T04:05:06;-1.40;99.90
69533;DHT22;56729;52.036;5.332;2023-02-08T04:06:09;-1.40;99.90
69533;DHT22;56729;52.036;5.332;2023-02-08T04:07:11;-1.50;99.90
69533;DHT22;56729;52.036;5.332;2023-02-08T04:08:13;-1.50;99.90
69533;DHT22;56729;52.036;5.332;2023-02-08T04:09:15;-1.50;99.90
69533;DHT22;56729;52.036;5.332;2023-02-08T04:10:17;-1.50;99.90
69533;DHT22;56729;52.036;5.332;2023-02-08T04:11:19;-1.50;99.90
69533;DHT22;56729;52.036;5.332;2023-02-08T04:12:21;-1.50;99.90
69533;DHT22;56729;52.036;5.332;2023-02-08T04:13:22;-1.50;99.90
69533;DHT22;56729;52.036;5.332;2023-02-08T04:14:24;-1.50;99.90
69533;DHT22;56729;52.036;5.332;2023-02-08T04:15:26;-1.50;99.90
69533;DHT22;56729;52.036;5.332;2023-02-08T04:16:28;-1.40;99.90
69533;DHT22;56729;52.036;5.332;2023-02-08T04:17:30;-1.40;99.90
69533;DHT22;56729;52.036;5.332;2023-02-08T04:18:32;-1.40;99.90
69533;DHT22;56729;52.036;5.332;2023-02-08T04:19:34;-1.40;99.90
69533;DHT22;56729;52.036;5.332;2023-02-08T04:20:36;-1.40;99.90
69533;DHT22;56729;52.036;5.332;2023-02-08T04:21:38;-1.40;99.90
69533;DHT22;56729;52.036;5.332;2023-02-08T04:22:40;-1.40;99.90
69533;DHT22;56729;52.036;5.332;2023-02-08T04:23:42;-1.40;99.90
69533;DHT22;56729;52.036;5.332;2023-02-08T04:24:44;-1.40;99.90
69533;DHT22;56729;52.036;5.332;2023-02-08T04:25:46;-1.30;99.90
69533;DHT22;56729;52.036;5.332;2023-02-08T04:26:48;-1.30;99.90
69533;DHT22;56729;52.036;5.332;2023-02-08T04:27:49;-1.30;99.90
69533;DHT22;56729;52.036;5.332;2023-02-08T04:28:51;-1.30;99.90
69533;DHT22;56729;52.036;5.332;2023-02-08T04:29:53;-1.30;99.90
69533;DHT22;56729;52.036;5.332;2023-02-08T04:30:55;-1.30;99.90
69533;DHT22;56729;52.036;5.332;2023-02-08T04:32:00;-1.30;99.90
69533;DHT22;56729;52.036;5.332;2023-02-08T04:33:01;-1.20;99.90
69533;DHT22;56729;52.036;5.332;2023-02-08T04:34:04;-1.20;99.90
69533;DHT22;56729;52.036;5.332;2023-02-08T04:35:06;-1.20;99.90
69533;DHT22;56729;52.036;5.332;2023-02-08T04:36:08;-1.20;99.90
69533;DHT22;56729;52.036;5.332;2023-02-08T04:37:10;-1.20;99.90
69533;DHT22;56729;52.036;5.332;2023-02-08T04:38:12;-1.20;99.90
69533;DHT22;56729;52.036;5.332;2023-02-08T04:39:14;-1.20;99.90
69533;DHT22;56729;52.036;5.332;2023-02-08T04:40:16;-1.20;99.90
69533;DHT22;56729;52.036;5.332;2023-02-08T04:41:18;-1.30;99.90
69533;DHT22;56729;52.036;5.332;2023-02-08T04:42:20;-1.20;99.90
69533;DHT22;56729;52.036;5.332;2023-02-08T04:43:21;-1.20;99.90
69533;DHT22;56729;52.036;5.332;2023-02-08T04:44:23;-1.20;99.90
69533;DHT22;56729;52.036;5.332;2023-02-08T04:45:25;-1.20;99.90
69533;DHT22;56729;52.036;5.332;2023-02-08T04:46:28;-1.20;99.90
69533;DHT22;56729;52.036;5.332;2023-02-08T04:47:30;-1.20;99.90
69533;DHT22;56729;52.036;5.332;2023-02-08T04:48:32;-1.20;99.90
69533;DHT22;56729;52.036;5.332;2023-02-08T04:49:34;-1.20;99.90
69533;DHT22;56729;52.036;5.332;2023-02-08T04:50:36;-1.20;99.90
69533;DHT22;56729;52.036;5.332;2023-02-08T04:51:38;-1.30;99.90
69533;DHT22;56729;52.036;5.332;2023-02-08T04:52:39;-1.30;99.90
69533;DHT22;56729;52.036;5.332;2023-02-08T04:53:41;-1.30;99.90
69533;DHT22;56729;52.036;5.332;2023-02-08T04:54:44;-1.30;99.90
69533;DHT22;56729;52.036;5.332;2023-02-08T04:55:46;-1.30;99.90
69533;DHT22;56729;52.036;5.332;2023-02-08T04:56:48;-1.40;99.90
69533;DHT22;56729;52.036;5.332;2023-02-08T04:57:50;-1.40;99.90
69533;DHT22;56729;52.036;5.332;2023-02-08T04:58:55;-1.40;99.90
69533;DHT22;56729;52.036;5.332;2023-02-08T04:59:57;-1.50;99.90
69533;DHT22;56729;52.036;5.332;2023-02-08T05:01:05;-1.50;99.90
69533;DHT22;56729;52.036;5.332;2023-02-08T05:02:08;-1.50;99.90
69533;DHT22;56729;52.036;5.332;2023-02-08T05:03:10;-1.50;99.90
69533;DHT22;56729;52.036;5.332;2023-02-08T05:04:12;-1.50;99.90
69533;DHT22;56729;52.036;5.332;2023-02-08T05:05:14;-1.50;99.90
69533;DHT22;56729;52.036;5.332;2023-02-08T05:06:16;-1.50;99.90
69533;DHT22;56729;52.036;5.332;2023-02-08T05:07:17;-1.50;99.90
69533;DHT22;56729;52.036;5.332;2023-02-08T05:08:19;-1.50;99.90
69533;DHT22;56729;52.036;5.332;2023-02-08T05:09:21;-1.50;99.90
69533;DHT22;56729;52.036;5.332;2023-02-08T05:10:23;-1.50;99.90
69533;DHT22;56729;52.036;5.332;2023-02-08T05:11:25;-1.50;99.90
69533;DHT22;56729;52.036;5.332;2023-02-08T05:12:27;-1.50;99.90
69533;DHT22;56729;52.036;5.332;2023-02-08T05:13:29;-1.50;99.90
69533;DHT22;56729;52.036;5.332;2023-02-08T05:14:31;-1.50;99.90
69533;DHT22;56729;52.036;5.332;2023-02-08T05:15:33;-1.50;99.90
69533;DHT22;56729;52.036;5.332;2023-02-08T05:16:35;-1.50;99.90
69533;DHT22;56729;52.036;5.332;2023-02-08T05:17:37;-1.50;99.90
69533;DHT22;56729;52.036;5.332;2023-02-08T05:18:39;-1.50;99.90
69533;DHT22;56729;52.036;5.332;2023-02-08T05:19:41;-1.40;99.90
69533;DHT22;56729;52.036;5.332;2023-02-08T05:20:43;-1.40;99.90
69533;DHT22;56729;52.036;5.332;2023-02-08T05:21:45;-1.40;99.90
69533;DHT22;56729;52.036;5.332;2023-02-08T05:22:47;-1.40;99.90
69533;DHT22;56729;52.036;5.332;2023-02-08T05:23:50;-1.40;99.90
69533;DHT22;56729;52.036;5.332;2023-02-08T05:24:52;-1.40;99.90
69533;DHT22;56729;52.036;5.332;2023-02-08T05:25:54;-1.40;99.90
69533;DHT22;56729;52.036;5.332;2023-02-08T05:26:55;-1.40;99.90
69533;DHT22;56729;52.036;5.332;2023-02-08T05:27:59;-1.40;99.90
69533;DHT22;56729;52.036;5.332;2023-02-08T05:29:01;-1.50;99.90
69533;DHT22;56729;52.036;5.332;2023-02-08T05:30:03;-1.50;99.90
69533;DHT22;56729;52.036;5.332;2023-02-08T05:31:17;-1.50;99.90
69533;DHT22;56729;52.036;5.332;2023-02-08T05:32:20;-1.50;99.90
69533;DHT22;56729;52.036;5.332;2023-02-08T05:33:22;-1.50;99.90
69533;DHT22;56729;52.036;5.332;2023-02-08T05:34:24;-1.50;99.90
69533;DHT22;56729;52.036;5.332;2023-02-08T05:35:26;-1.50;99.90
69533;DHT22;56729;52.036;5.332;2023-02-08T05:36:28;-1.50;99.90
69533;DHT22;56729;52.036;5.332;2023-02-08T05:37:30;-1.60;99.90
69533;DHT22;56729;52.036;5.332;2023-02-08T05:38:31;-1.50;99.90
69533;DHT22;56729;52.036;5.332;2023-02-08T05:39:33;-1.60;99.90
69533;DHT22;56729;52.036;5.332;2023-02-08T05:40:35;-1.60;99.90
69533;DHT22;56729;52.036;5.332;2023-02-08T05:41:37;-1.60;99.90
69533;DHT22;56729;52.036;5.332;2023-02-08T05:42:39;-1.60;99.90
69533;DHT22;56729;52.036;5.332;2023-02-08T05:43:42;-1.70;99.90
69533;DHT22;56729;52.036;5.332;2023-02-08T05:44:44;-1.70;99.90
69533;DHT22;56729;52.036;5.332;2023-02-08T05:45:46;-1.70;99.90
69533;DHT22;56729;52.036;5.332;2023-02-08T05:46:49;-1.70;99.90
69533;DHT22;56729;52.036;5.332;2023-02-08T05:47:51;-1.70;99.90
69533;DHT22;56729;52.036;5.332;2023-02-08T05:48:53;-1.70;99.90
69533;DHT22;56729;52.036;5.332;2023-02-08T05:49:55;-1.70;99.90
69533;DHT22;56729;52.036;5.332;2023-02-08T05:50:57;-1.70;99.90
69533;DHT22;56729;52.036;5.332;2023-02-08T05:52:00;-1.70;99.90
69533;DHT22;56729;52.036;5.332;2023-02-08T05:53:02;-1.70;99.90
69533;DHT22;56729;52.036;5.332;2023-02-08T05:54:04;-1.70;99.90
69533;DHT22;56729;52.036;5.332;2023-02-08T05:55:06;-1.70;99.90
69533;DHT22;56729;52.036;5.332;2023-02-08T05:56:08;-1.70;99.90
69533;DHT22;56729;52.036;5.332;2023-02-08T05:57:10;-1.70;99.90
69533;DHT22;56729;52.036;5.332;2023-02-08T05:58:12;-1.80;99.90
69533;DHT22;56729;52.036;5.332;2023-02-08T05:59:13;-1.80;99.90
69533;DHT22;56729;52.036;5.332;2023-02-08T06:00:15;-1.80;99.90
69533;DHT22;56729;52.036;5.332;2023-02-08T06:01:17;-1.80;99.90
69533;DHT22;56729;52.036;5.332;2023-02-08T06:02:19;-1.80;99.90
69533;DHT22;56729;52.036;5.332;2023-02-08T06:03:21;-1.80;99.90
69533;DHT22;56729;52.036;5.332;2023-02-08T06:04:23;-1.80;99.90
69533;DHT22;56729;52.036;5.332;2023-02-08T06:05:25;-1.80;99.90
69533;DHT22;56729;52.036;5.332;2023-02-08T06:06:44;-1.80;99.90
69533;DHT22;56729;52.036;5.332;2023-02-08T06:07:46;-1.80;99.90
69533;DHT22;56729;52.036;5.332;2023-02-08T06:08:48;-1.80;99.90
69533;DHT22;56729;52.036;5.332;2023-02-08T06:09:49;-1.80;99.90
69533;DHT22;56729;52.036;5.332;2023-02-08T06:10:51;-1.90;99.90
69533;DHT22;56729;52.036;5.332;2023-02-08T06:11:53;-1.90;99.90
69533;DHT22;56729;52.036;5.332;2023-02-08T06:12:55;-1.90;99.90
69533;DHT22;56729;52.036;5.332;2023-02-08T06:13:56;-1.90;99.90
69533;DHT22;56729;52.036;5.332;2023-02-08T06:14:58;-1.90;99.90
69533;DHT22;56729;52.036;5.332;2023-02-08T06:16:00;-1.90;99.90
69533;DHT22;56729;52.036;5.332;2023-02-08T06:17:02;-1.90;99.90
69533;DHT22;56729;52.036;5.332;2023-02-08T06:18:04;-1.90;99.90
69533;DHT22;56729;52.036;5.332;2023-02-08T06:19:06;-1.90;99.90
69533;DHT22;56729;52.036;5.332;2023-02-08T06:20:08;-1.90;99.90
69533;DHT22;56729;52.036;5.332;2023-02-08T06:21:10;-1.90;99.90
69533;DHT22;56729;52.036;5.332;2023-02-08T06:22:13;-1.90;99.90
69533;DHT22;56729;52.036;5.332;2023-02-08T06:23:14;-1.90;99.90
69533;DHT22;56729;52.036;5.332;2023-02-08T06:24:16;-1.90;99.90
69533;DHT22;56729;52.036;5.332;2023-02-08T06:25:18;-1.90;99.90
69533;DHT22;56729;52.036;5.332;2023-02-08T06:26:20;-1.90;99.90
69533;DHT22;56729;52.036;5.332;2023-02-08T06:27:22;-1.90;99.90
69533;DHT22;56729;52.036;5.332;2023-02-08T06:28:25;-1.90;99.90
69533;DHT22;56729;52.036;5.332;2023-02-08T06:29:26;-1.90;99.90
69533;DHT22;56729;52.036;5.332;2023-02-08T06:30:28;-1.90;99.90
69533;DHT22;56729;52.036;5.332;2023-02-08T06:31:30;-1.80;99.90
69533;DHT22;56729;52.036;5.332;2023-02-08T06:32:32;-1.80;99.90
69533;DHT22;56729;52.036;5.332;2023-02-08T06:33:34;-1.80;99.90
69533;DHT22;56729;52.036;5.332;2023-02-08T06:34:36;-1.80;99.90
69533;DHT22;56729;52.036;5.332;2023-02-08T06:35:37;-1.80;99.90
69533;DHT22;56729;52.036;5.332;2023-02-08T06:36:39;-1.80;99.90
69533;DHT22;56729;52.036;5.332;2023-02-08T06:37:41;-1.80;99.90
69533;DHT22;56729;52.036;5.332;2023-02-08T06:38:43;-1.80;99.90
69533;DHT22;56729;52.036;5.332;2023-02-08T06:39:45;-1.80;99.90
69533;DHT22;56729;52.036;5.332;2023-02-08T06:40:47;-1.80;99.90
69533;DHT22;56729;52.036;5.332;2023-02-08T06:41:50;-1.80;99.90
69533;DHT22;56729;52.036;5.332;2023-02-08T06:42:51;-1.70;99.90
69533;DHT22;56729;52.036;5.332;2023-02-08T06:43:53;-1.70;99.90
69533;DHT22;56729;52.036;5.332;2023-02-08T06:44:55;-1.70;99.90
69533;DHT22;56729;52.036;5.332;2023-02-08T06:45:58;-1.70;99.90
69533;DHT22;56729;52.036;5.332;2023-02-08T06:47:00;-1.70;99.90
69533;DHT22;56729;52.036;5.332;2023-02-08T06:48:02;-1.70;99.90
69533;DHT22;56729;52.036;5.332;2023-02-08T06:49:04;-1.70;99.90
69533;DHT22;56729;52.036;5.332;2023-02-08T06:50:06;-1.70;99.90
69533;DHT22;56729;52.036;5.332;2023-02-08T06:51:08;-1.70;99.90
69533;DHT22;56729;52.036;5.332;2023-02-08T06:52:10;-1.70;99.90
69533;DHT22;56729;52.036;5.332;2023-02-08T06:53:12;-1.70;99.90
69533;DHT22;56729;52.036;5.332;2023-02-08T06:54:14;-1.70;99.90
69533;DHT22;56729;52.036;5.332;2023-02-08T06:55:16;-1.70;99.90
69533;DHT22;56729;52.036;5.332;2023-02-08T06:56:18;-1.70;99.90
69533;DHT22;56729;52.036;5.332;2023-02-08T06:57:20;-1.70;99.90
69533;DHT22;56729;52.036;5.332;2023-02-08T06:58:22;-1.60;99.90
69533;DHT22;56729;52.036;5.332;2023-02-08T06:59:24;-1.70;99.90
69533;DHT22;56729;52.036;5.332;2023-02-08T07:00:26;-1.60;99.90
69533;DHT22;56729;52.036;5.332;2023-02-08T07:01:27;-1.60;99.90
69533;DHT22;56729;52.036;5.332;2023-02-08T07:02:29;-1.60;99.90
69533;DHT22;56729;52.036;5.332;2023-02-08T07:03:31;-1.60;99.90
69533;DHT22;56729;52.036;5.332;2023-02-08T07:04:33;-1.60;99.90
69533;DHT22;56729;52.036;5.332;2023-02-08T07:05:36;-1.60;99.90
69533;DHT22;56729;52.036;5.332;2023-02-08T07:06:38;-1.60;99.90
69533;DHT22;56729;52.036;5.332;2023-02-08T07:07:40;-1.60;99.90
69533;DHT22;56729;52.036;5.332;2023-02-08T07:08:42;-1.60;99.90
69533;DHT22;56729;52.036;5.332;2023-02-08T07:09:44;-1.60;99.90
69533;DHT22;56729;52.036;5.332;2023-02-08T07:10:45;-1.60;99.90
69533;DHT22;56729;52.036;5.332;2023-02-08T07:11:47;-1.60;99.90
69533;DHT22;56729;52.036;5.332;2023-02-08T07:12:49;-1.60;99.90
69533;DHT22;56729;52.036;5.332;2023-02-08T07:13:51;-1.60;99.90
69533;DHT22;56729;52.036;5.332;2023-02-08T07:14:55;-1.60;99.90
69533;DHT22;56729;52.036;5.332;2023-02-08T07:15:56;-1.60;99.90
69533;DHT22;56729;52.036;5.332;2023-02-08T07:17:00;-1.60;99.90
69533;DHT22;56729;52.036;5.332;2023-02-08T07:18:02;-1.60;99.90
69533;DHT22;56729;52.036;5.332;2023-02-08T07:19:04;-1.60;99.90
69533;DHT22;56729;52.036;5.332;2023-02-08T07:20:06;-1.50;99.90
69533;DHT22;56729;52.036;5.332;2023-02-08T07:21:08;-1.50;99.90